.
WxDataArchive / Data Records for 2012-09-19
2012-09-18 September 2012 2012-09-20

Data Records for Wednesday, 19 September 2012

Time	Temp	Chill	HIndex	Humid	Dewpt	 Wind 	HiWind	WindDir	Rain 	Barom 
-----	----	-----	------	-----	-----	------	------	-------	-----	----- 
00:00	46.0	46.0	46.0	71	37.1	0	0	---	0.00	30.013 
00:05	45.7	45.7	45.7	72	37.2	0	0	---	0.00	30.013 
00:10	45.5	45.5	45.5	72	37.0	0	0	---	0.00	30.013 
00:15	45.2	45.2	45.2	73	37.1	0	0	---	0.00	30.017 
00:20	44.9	44.9	44.9	74	37.1	0	0	---	0.00	30.017 
00:25	44.6	44.6	44.6	76	37.5	0	0	---	0.00	30.017 
00:30	44.5	44.5	44.5	76	37.4	0	0	---	0.00	30.021 
00:35	44.2	44.2	44.2	77	37.5	0	0	---	0.00	30.021 
00:40	44.1	44.1	44.1	77	37.4	0	0	---	0.00	30.021 
00:45	43.8	43.8	43.8	78	37.4	0	0	---	0.00	30.024 
00:50	43.6	43.6	43.6	79	37.5	0	0	---	0.00	30.024 
00:55	43.5	43.5	43.5	80	37.7	0	0	---	0.00	30.024 
01:00	43.3	43.3	43.3	81	37.9	0	0	---	0.00	30.031 
01:05	43.1	43.1	43.1	81	37.7	0	0	---	0.00	30.031 
01:10	42.9	42.9	42.9	82	37.8	0	0	---	0.00	30.031 
01:15	42.8	42.8	42.8	82	37.7	0	0	---	0.00	30.034 
01:20	42.8	42.8	42.8	83	38.0	0	0	---	0.00	30.034 
01:25	42.6	42.6	42.6	84	38.1	0	0	---	0.00	30.034 
01:30	42.5	42.5	42.5	84	38.0	0	0	---	0.00	30.038 
01:35	42.3	42.3	42.3	84	37.8	0	0	---	0.00	30.038 
01:40	42.2	42.2	42.2	84	37.7	0	0	---	0.00	30.038 
01:45	42.1	42.1	42.1	85	37.9	0	0	---	0.00	30.041 
01:50	41.9	41.9	41.9	85	37.7	0	0	---	0.00	30.041 
01:55	41.9	41.9	41.9	86	38.0	0	0	---	0.00	30.041 
02:00	41.8	41.8	41.8	86	37.9	0	0	---	0.00	30.043 
02:05	41.8	41.8	41.8	86	37.9	0	0	---	0.00	30.043 
02:10	41.6	41.6	41.6	86	37.7	0	0	---	0.00	30.043 
02:15	41.6	41.6	41.6	87	38.0	0	0	---	0.00	30.046 
02:20	41.5	41.5	41.5	87	37.9	0	0	---	0.00	30.046 
02:25	41.5	41.5	41.5	87	37.9	0	0	---	0.00	30.046 
02:30	41.3	41.3	41.3	87	37.7	0	0	---	0.00	30.049 
02:35	41.3	41.3	41.3	88	38.0	0	0	---	0.00	30.049 
02:40	41.2	41.2	41.2	88	37.9	0	0	---	0.00	30.049 
02:45	41.1	41.1	41.1	88	37.8	0	0	---	0.00	30.045 
02:50	40.9	40.9	40.9	88	37.6	0	0	---	0.00	30.045 
02:55	40.9	40.9	40.9	88	37.6	0	0	---	0.00	30.045 
03:00	40.8	40.8	40.8	89	37.8	0	0	---	0.00	30.043 
03:05	40.6	40.6	40.6	89	37.6	0	0	---	0.00	30.043 
03:10	40.6	40.6	40.6	89	37.6	0	0	---	0.00	30.043 
03:15	40.5	40.5	40.5	89	37.5	0	0	---	0.00	30.041 
03:20	40.5	40.5	40.5	90	37.8	0	0	---	0.00	30.041 
03:25	40.5	40.5	40.5	90	37.8	0	0	---	0.00	30.041 
03:30	40.6	40.6	40.6	90	37.9	0	0	---	0.00	30.040 
03:35	40.5	40.5	40.5	90	37.8	0	0	---	0.00	30.040 
03:40	40.5	40.5	40.5	90	37.8	0	0	---	0.00	30.040 
03:45	40.5	40.5	40.5	90	37.8	0	0	---	0.00	30.039 
03:50	40.5	40.5	40.5	91	38.1	0	0	---	0.00	30.039 
03:55	40.5	40.5	40.5	91	38.1	0	0	---	0.00	30.039 
04:00	40.3	40.3	40.3	91	37.9	0	0	---	0.00	30.044 
04:05	40.5	40.5	40.5	91	38.1	0	0	---	0.00	30.044 
04:10	40.5	40.5	40.5	91	38.1	0	0	---	0.00	30.044 
04:15	40.3	40.3	40.3	91	37.9	0	0	---	0.00	30.043 
04:20	40.3	40.3	40.3	91	37.9	0	0	---	0.00	30.043 
04:25	40.3	40.3	40.3	91	37.9	0	0	---	0.00	30.043 
04:30	40.2	40.2	40.2	91	37.8	0	0	---	0.00	30.046 
04:35	40.2	40.2	40.2	91	37.8	0	0	---	0.00	30.046 
04:40	40.2	40.2	40.2	91	37.8	0	0	---	0.00	30.046 
04:45	40.2	40.2	40.2	92	38.1	0	0	---	0.00	30.049 
04:50	40.2	40.2	40.2	92	38.1	0	0	---	0.00	30.049 
04:55	40.2	40.2	40.2	92	38.1	0	0	---	0.00	30.049 
05:00	40.2	40.2	40.2	92	38.1	0	0	---	0.00	30.050 
05:05	40.2	40.2	40.2	92	38.1	0	0	---	0.00	30.050 
05:10	40.1	40.1	40.1	92	38.0	0	0	---	0.00	30.050 
05:15	40.1	40.1	40.1	92	38.0	0	0	---	0.00	30.055 
05:20	40.1	40.1	40.1	92	38.0	0	0	---	0.00	30.055 
05:25	40.1	40.1	40.1	92	38.0	0	0	---	0.00	30.055 
05:30	39.9	39.9	39.9	92	37.8	0	0	---	0.00	30.056 
05:35	39.9	39.9	39.9	92	37.8	0	0	---	0.00	30.056 
05:40	39.8	39.8	39.8	92	37.7	0	0	---	0.00	30.056 
05:45	39.8	39.8	39.8	92	37.7	0	0	---	0.00	30.061 
05:50	39.6	39.6	39.6	92	37.5	0	0	---	0.00	30.061 
05:55	39.6	39.6	39.6	92	37.5	0	0	---	0.00	30.061 
06:00	39.5	39.5	39.5	92	37.4	0	0	---	0.00	30.061 
06:05	39.3	39.3	39.3	92	37.2	0	0	---	0.00	30.061 
06:10	39.3	39.3	39.3	92	37.2	0	0	---	0.00	30.061 
06:15	39.3	39.3	39.3	92	37.2	0	0	---	0.00	30.068 
06:20	39.3	39.3	39.3	92	37.2	0	0	---	0.00	30.068 
06:25	39.5	39.5	39.5	93	37.6	0	0	---	0.00	30.068 
06:30	39.8	39.8	39.8	93	37.9	0	0	---	0.00	30.071 
06:35	39.8	39.8	39.8	93	37.9	0	0	---	0.00	30.071 
06:40	39.9	39.9	39.9	93	38.0	0	0	---	0.00	30.071 
06:45	39.9	39.9	39.9	93	38.0	0	0	---	0.00	30.074 
06:50	39.8	39.8	39.8	93	37.9	0	0	---	0.00	30.074 
06:55	39.8	39.8	39.8	93	37.9	0	0	---	0.00	30.074 
07:00	39.6	39.6	39.6	93	37.7	0	0	---	0.00	30.080 
07:05	39.6	39.6	39.6	93	37.7	0	0	---	0.00	30.080 
07:10	39.6	39.6	39.6	93	37.7	0	0	---	0.00	30.080 
07:15	39.6	39.6	39.6	93	37.7	0	0	---	0.00	30.090 
07:20	39.9	39.9	39.9	93	38.0	0	0	---	0.00	30.090 
07:25	39.9	39.9	39.9	93	38.0	0	0	---	0.00	30.090 
07:30	39.8	39.8	39.8	93	37.9	0	0	---	0.00	30.095 
07:35	39.8	39.8	39.8	93	37.9	0	0	---	0.00	30.095 
07:40	39.8	39.8	39.8	93	37.9	0	0	---	0.00	30.095 
07:45	39.6	39.6	39.6	93	37.7	0	0	---	0.00	30.101 
07:50	39.5	39.5	39.5	93	37.6	0	0	---	0.00	30.101 
07:55	39.5	39.5	39.5	93	37.6	0	0	---	0.00	30.101 
08:00	39.6	39.6	39.6	93	37.7	0	0	---	0.00	30.104 
08:05	39.8	39.8	39.8	93	37.9	0	0	---	0.00	30.104 
08:10	40.1	40.1	40.1	94	38.5	0	0	---	0.00	30.104 
08:15	40.3	40.3	40.3	94	38.7	0	0	---	0.00	30.108 
08:20	40.6	40.6	40.6	94	39.0	0	0	---	0.00	30.108 
08:25	40.9	40.9	40.9	94	39.3	0	0	---	0.00	30.108 
08:30	41.3	41.3	41.3	94	39.7	0	0	---	0.00	30.113 
08:35	42.1	42.1	42.1	94	40.5	0	0	---	0.00	30.113 
08:40	42.6	42.6	42.6	94	41.0	0	0	---	0.00	30.113 
08:45	43.1	43.1	43.1	94	41.5	0	1	292	0.00	30.115 
08:50	43.3	43.3	43.3	94	41.7	0	0	---	0.00	30.115 
08:55	43.8	43.8	43.8	93	41.9	0	0	---	0.00	30.115 
09:00	44.2	44.2	44.2	93	42.3	0	0	---	0.00	30.117 
09:05	44.6	44.6	44.6	92	42.4	0	0	---	0.00	30.117 
09:10	45.1	45.1	45.1	92	42.9	0	0	---	0.00	30.117 
09:15	45.5	45.5	45.5	91	43.0	0	0	---	0.00	30.118 
09:20	46.1	46.1	46.1	89	43.0	0	1	292	0.00	30.118 
09:25	46.7	46.7	46.7	87	43.0	0	0	---	0.00	30.118 
09:30	47.1	47.1	47.1	84	42.5	0	0	---	0.00	30.117 
09:35	47.7	47.7	47.7	83	42.8	0	1	292	0.00	30.117 
09:40	48.5	48.5	48.5	79	42.3	0	0	---	0.00	30.117 
09:45	49.2	49.2	49.2	76	42.0	0	0	---	0.00	30.116 
09:50	50.1	50.1	50.1	72	41.4	0	1	292	0.00	30.116 
09:55	50.7	50.7	50.7	71	41.6	0	0	---	0.00	30.116 
10:00	51.3	51.3	51.3	68	41.1	0	1	292	0.00	30.118 
10:05	52.2	52.2	52.2	67	41.6	0	2	292	0.00	30.118 
10:10	52.9	52.9	52.9	63	40.7	0	1	292	0.00	30.118 
10:15	53.6	53.6	53.6	61	40.5	0	1	292	0.00	30.121 
10:20	54.4	54.4	54.4	59	40.4	0	1	292	0.00	30.121 
10:25	55.3	55.3	55.3	58	40.8	0	1	292	0.00	30.121 
10:30	56.2	56.2	56.2	58	41.6	0	1	292	0.00	30.118 
10:35	56.9	56.9	56.9	54	40.4	0	1	292	0.00	30.118 
10:40	57.5	57.5	57.5	50	39.0	0	2	292	0.00	30.118 
10:45	58.0	58.0	58.0	48	38.4	0	2	292	0.00	30.119 
10:50	58.6	58.6	58.6	49	39.5	0	2	292	0.00	30.119 
10:55	59.3	59.3	59.3	45	38.0	0	1	292	0.00	30.119 
11:00	59.8	59.8	59.8	40	35.4	1	4	292	0.00	30.119 
11:05	59.8	59.8	59.8	44	37.8	1	2	292	0.00	30.119 
11:10	59.8	59.8	59.8	43	37.3	1	3	292	0.00	30.119 
11:15	59.9	59.9	59.9	44	37.9	1	3	292	0.00	30.123 
11:20	60.2	60.2	60.2	43	37.6	1	2	292	0.00	30.123 
11:25	61.0	61.0	61.0	45	39.5	0	2	292	0.00	30.123 
11:30	61.8	61.8	61.8	41	37.8	1	2	292	0.00	30.120 
11:35	62.3	62.3	62.3	40	37.7	0	3	292	0.00	30.120 
11:40	62.7	62.7	62.7	39	37.4	0	2	292	0.00	30.120 
11:45	62.1	62.1	62.1	39	36.8	1	4	292	0.00	30.120 
11:50	62.3	62.3	62.3	38	36.4	1	3	292	0.00	30.120 
11:55	62.9	62.9	62.9	38	36.9	0	2	292	0.00	30.120 
12:00	63.1	63.1	63.1	39	37.7	1	4	292	0.00	30.115 
12:05	63.4	63.4	63.4	35	35.3	1	4	315	0.00	30.115 
12:10	63.5	63.5	63.5	37	36.8	1	3	68	0.00	30.115 
12:15	63.4	63.4	63.4	35	35.3	2	5	248	0.00	30.113 
12:20	63.4	63.4	63.4	36	36.0	1	4	225	0.00	30.113 
12:25	63.5	63.5	63.5	37	36.8	1	4	248	0.00	30.113 
12:30	63.7	63.7	63.7	35	35.5	1	6	248	0.00	30.113 
12:35	64.0	64.0	64.0	38	37.9	1	3	248	0.00	30.113 
12:40	64.2	64.2	64.2	36	36.7	1	4	248	0.00	30.113 
12:45	64.2	64.2	64.2	35	36.0	1	4	270	0.00	30.113 
12:50	63.9	63.9	63.9	33	34.2	2	5	292	0.00	30.113 
12:55	64.3	64.3	64.3	38	38.1	0	3	225	0.00	30.113 
13:00	65.3	65.3	65.3	35	36.9	1	3	248	0.00	30.109 
13:05	65.6	65.6	65.6	35	37.2	1	3	248	0.00	30.109 
13:10	65.5	65.5	65.5	35	37.1	1	4	248	0.00	30.109 
13:15	65.5	65.5	65.5	34	36.4	1	6	225	0.00	30.108 
13:20	65.2	65.2	65.2	37	38.3	1	3	225	0.00	30.108 
13:25	65.6	65.6	65.6	36	37.9	1	4	315	0.00	30.108 
13:30	65.5	65.5	65.5	36	37.8	1	4	292	0.00	30.105 
13:35	65.8	65.8	65.8	33	35.9	1	3	112	0.00	30.105 
13:40	66.0	66.0	66.0	35	37.6	1	4	248	0.00	30.105 
13:45	66.3	66.3	66.3	34	37.1	1	4	248	0.00	30.098 
13:50	66.3	66.3	66.3	31	34.8	1	4	270	0.00	30.098 
13:55	66.1	66.1	66.1	32	35.4	1	4	315	0.00	30.098 
14:00	66.0	66.0	66.0	31	34.5	2	9	270	0.00	30.095 
14:05	65.8	65.8	65.8	32	35.1	1	4	292	0.00	30.095 
14:10	66.1	66.1	66.1	30	33.8	1	3	315	0.00	30.095 
14:15	66.6	66.6	66.6	33	36.6	1	3	292	0.00	30.092 
14:20	66.6	66.6	66.6	31	35.0	2	5	248	0.00	30.092 
14:25	66.4	66.4	66.4	28	32.3	2	4	270	0.00	30.092 
14:30	66.6	66.6	66.6	32	35.8	1	4	270	0.00	30.082 
14:35	66.9	66.9	66.9	31	35.3	1	5	248	0.00	30.082 
14:40	67.3	67.3	67.3	31	35.6	1	3	248	0.00	30.082 
14:45	67.3	67.3	67.3	29	33.9	2	5	270	0.00	30.079 
14:50	67.3	67.3	67.3	27	32.2	2	6	225	0.00	30.079 
14:55	67.3	67.3	67.3	29	33.9	1	4	225	0.00	30.079 
15:00	67.4	67.4	67.4	30	34.9	1	3	225	0.00	30.074 
15:05	67.8	67.8	67.8	29	34.4	1	6	270	0.00	30.074 
15:10	67.8	67.8	67.8	31	36.1	1	3	225	0.00	30.074 
15:15	67.8	67.8	67.8	31	36.1	1	5	112	0.00	30.065 
15:20	67.8	67.8	67.8	30	35.2	1	4	90	0.00	30.065 
15:25	67.8	67.8	67.8	30	35.2	1	3	270	0.00	30.065 
15:30	67.8	67.8	67.8	29	34.4	1	4	270	0.00	30.063 
15:35	67.9	67.9	67.9	30	35.3	1	3	248	0.00	30.063 
15:40	67.9	67.9	67.9	27	32.7	1	3	248	0.00	30.063 
15:45	68.4	68.4	68.4	30	35.7	1	3	270	0.00	30.059 
15:50	68.8	68.8	68.8	30	36.1	0	2	270	0.00	30.059 
15:55	68.9	68.9	68.9	30	36.2	0	2	45	0.00	30.059 
16:00	68.9	68.9	68.9	28	34.4	2	5	68	0.00	30.052 
16:05	68.6	68.6	68.6	31	36.8	1	3	68	0.00	30.052 
16:10	68.4	68.4	68.4	31	36.6	1	4	45	0.00	30.052 
16:15	68.3	68.3	68.3	27	33.0	2	4	270	0.00	30.047 
16:20	68.1	68.1	68.1	31	36.3	1	4	270	0.00	30.047 
16:25	68.1	68.1	68.1	28	33.8	1	5	270	0.00	30.047 
16:30	67.8	67.8	67.8	30	35.2	1	5	270	0.00	30.038 
16:35	67.8	67.8	67.8	29	34.4	1	10	112	0.00	30.038 
16:40	67.8	67.8	67.8	31	36.1	0	2	45	0.00	30.038 
16:45	67.8	67.8	67.8	28	33.5	1	3	248	0.00	30.036 
16:50	67.6	67.6	67.6	30	35.1	1	4	90	0.00	30.036 
16:55	67.4	67.4	67.4	30	34.9	2	7	90	0.00	30.036 
17:00	67.3	67.3	67.3	31	35.6	2	6	112	0.00	30.037 
17:05	67.1	67.1	67.1	31	35.4	1	5	90	0.00	30.037 
17:10	67.3	67.3	67.3	31	35.6	0	3	112	0.00	30.037 
17:15	67.1	67.1	67.1	31	35.4	1	5	90	0.00	30.033 
17:20	67.1	67.1	67.1	31	35.4	0	4	270	0.00	30.033 
17:25	67.1	67.1	67.1	31	35.4	0	3	270	0.00	30.033 
17:30	67.1	67.1	67.1	30	34.6	1	7	68	0.00	30.027 
17:35	66.9	66.9	66.9	31	35.3	1	4	68	0.00	30.027 
17:40	66.8	66.8	66.8	31	35.2	1	3	315	0.00	30.027 
17:45	66.6	66.6	66.6	31	35.0	1	5	315	0.00	30.018 
17:50	66.6	66.6	66.6	31	35.0	1	5	292	0.00	30.018 
17:55	66.6	66.6	66.6	30	34.2	1	4	270	0.00	30.018 
18:00	66.6	66.6	66.6	31	35.0	0	4	248	0.00	30.017 
18:05	66.4	66.4	66.4	31	34.8	1	3	225	0.00	30.017 
18:10	66.4	66.4	66.4	30	34.0	1	6	90	0.00	30.017 
18:15	66.3	66.3	66.3	32	35.6	0	3	90	0.00	30.018 
18:20	66.1	66.1	66.1	31	34.6	1	3	292	0.00	30.018 
18:25	66.1	66.1	66.1	31	34.6	0	2	22	0.00	30.018 
18:30	66.0	66.0	66.0	31	34.5	1	9	90	0.00	30.017 
18:35	65.8	65.8	65.8	32	35.1	0	2	248	0.00	30.017 
18:40	65.6	65.6	65.6	32	34.9	1	3	22	0.00	30.017 
18:45	65.5	65.5	65.5	32	34.9	1	5	90	0.00	30.015 
18:50	65.2	65.2	65.2	33	35.4	1	4	90	0.00	30.015 
18:55	64.8	64.8	64.8	33	35.0	1	4	90	0.00	30.015 
19:00	64.7	64.7	64.7	31	33.4	1	4	90	0.00	30.015 
19:05	64.3	64.3	64.3	32	33.8	0	3	270	0.00	30.015 
19:10	64.2	64.2	64.2	33	34.5	0	1	68	0.00	30.015 
19:15	63.9	63.9	63.9	33	34.2	0	1	68	0.00	30.011 
19:20	63.7	63.7	63.7	34	34.8	0	2	68	0.00	30.011 
19:25	63.7	63.7	63.7	34	34.8	0	2	68	0.00	30.011 
19:30	63.5	63.5	63.5	35	35.4	0	2	68	0.00	30.001 
19:35	63.4	63.4	63.4	35	35.3	0	3	68	0.00	30.001 
19:40	63.2	63.2	63.2	35	35.1	0	1	68	0.00	30.001 
19:45	63.1	63.1	63.1	36	35.7	0	2	68	0.00	30.002 
19:50	62.7	62.7	62.7	37	36.0	0	1	68	0.00	30.002 
19:55	62.4	62.4	62.4	38	36.5	0	1	68	0.00	30.002 
20:00	62.1	62.1	62.1	39	36.8	0	1	68	0.00	30.006 
20:05	61.8	61.8	61.8	39	36.6	0	1	68	0.00	30.006 
20:10	61.6	61.6	61.6	40	37.0	0	0	---	0.00	30.006 
20:15	61.2	61.2	61.2	40	36.7	0	1	68	0.00	30.010 
20:20	60.9	60.9	60.9	41	37.0	0	0	---	0.00	30.010 
20:25	60.5	60.5	60.5	41	36.7	0	0	---	0.00	30.010 
20:30	60.4	60.4	60.4	42	37.2	0	0	---	0.00	30.011 
20:35	60.1	60.1	60.1	42	36.9	0	1	135	0.00	30.011 
20:40	59.9	59.9	59.9	43	37.3	0	0	---	0.00	30.011 
20:45	59.6	59.6	59.6	43	37.1	0	0	---	0.00	30.010 
20:50	59.5	59.5	59.5	44	37.6	0	1	135	0.00	30.010 
20:55	59.2	59.2	59.2	44	37.3	0	1	135	0.00	30.010 
21:00	59.2	59.2	59.2	45	37.9	0	1	135	0.00	30.008 
21:05	59.0	59.0	59.0	45	37.7	0	1	135	0.00	30.008 
21:10	59.0	59.0	59.0	45	37.7	0	1	135	0.00	30.008 
21:15	59.0	59.0	59.0	45	37.7	0	1	135	0.00	30.003 
21:20	59.0	59.0	59.0	45	37.7	0	1	135	0.00	30.003 
21:25	59.2	59.2	59.2	45	37.9	0	2	45	0.00	30.003 
21:30	59.2	59.2	59.2	45	37.9	0	1	45	0.00	30.003 
21:35	59.0	59.0	59.0	46	38.2	0	1	45	0.00	30.003 
21:40	58.9	58.9	58.9	46	38.2	0	1	45	0.00	30.003 
21:45	58.7	58.7	58.7	46	38.0	0	1	45	0.00	30.002 
21:50	58.4	58.4	58.4	46	37.7	0	1	45	0.00	30.002 
21:55	58.6	58.6	58.6	45	37.3	1	4	112	0.00	30.002 
22:00	58.6	58.6	58.6	45	37.3	0	3	112	0.00	30.000 
22:05	58.6	58.6	58.6	45	37.3	0	2	90	0.00	30.000 
22:10	58.4	58.4	58.4	46	37.7	0	2	135	0.00	30.000 
22:15	58.4	58.4	58.4	46	37.7	0	2	90	0.00	29.991 
22:20	58.3	58.3	58.3	46	37.6	0	3	180	0.00	29.991 
22:25	58.3	58.3	58.3	46	37.6	0	2	45	0.00	29.991 
22:30	58.1	58.1	58.1	47	38.0	0	3	45	0.00	29.992 
22:35	58.1	58.1	58.1	47	38.0	0	3	112	0.00	29.992 
22:40	58.1	58.1	58.1	47	38.0	0	2	112	0.00	29.992 
22:45	58.1	58.1	58.1	47	38.0	0	4	112	0.00	29.991 
22:50	58.0	58.0	58.0	47	37.9	0	2	248	0.00	29.991 
22:55	57.8	57.8	57.8	47	37.7	0	2	248	0.00	29.991 
23:00	57.8	57.8	57.8	48	38.2	0	3	248	0.00	29.991 
23:05	57.6	57.6	57.6	48	38.1	0	1	248	0.00	29.991 
23:10	57.5	57.5	57.5	48	38.0	0	1	248	0.00	29.991 
23:15	57.5	57.5	57.5	48	38.0	0	1	248	0.00	29.989 
23:20	57.3	57.3	57.3	49	38.3	0	1	248	0.00	29.989 
23:25	57.3	57.3	57.3	49	38.3	0	3	315	0.00	29.989 
23:30	57.2	57.2	57.2	49	38.2	0	2	270	0.00	29.993 
23:35	57.0	57.0	57.0	50	38.5	0	3	248	0.00	29.993 
23:40	56.7	56.7	56.7	51	38.8	0	3	248	0.00	29.993 
23:45	56.6	56.6	56.6	51	38.7	0	3	315	0.00	29.989 
23:50	56.5	56.5	56.5	51	38.6	0	3	90	0.00	29.989 
23:55	56.5	56.5	56.5	52	39.1	0	1	90	0.00	29.989 

CoCoRaHS
IN-AL-39
A2 Web Hosting
Creative Commons License
GoDaddy
search engine by freefind advanced

loaded 2018-11-13 23:21:01 • last modified 2010-11-18 10:43:29
Privacy PolicyDisclaimer
• wx.awcolley.com is powered by PmWiki v.2002016 •
• all content (unless otherwise noted) © 2018 A W Colley